sensor_id;sensor_type;location;lat;lon;timestamp;temperature;humidity
25154;DHT22;47555;51.038;6.280;2023-02-28T00:02:20;0.40;73.40
25154;DHT22;47555;51.038;6.280;2023-02-28T00:04:45;0.40;73.50
25154;DHT22;47555;51.038;6.280;2023-02-28T00:07:18;0.50;73.40
25154;DHT22;47555;51.038;6.280;2023-02-28T00:09:44;0.50;73.10
25154;DHT22;47555;51.038;6.280;2023-02-28T00:12:09;0.40;73.40
25154;DHT22;47555;51.038;6.280;2023-02-28T00:14:36;0.40;73.20
25154;DHT22;47555;51.038;6.280;2023-02-28T00:17:01;0.40;73.10
25154;DHT22;47555;51.038;6.280;2023-02-28T00:19:27;0.30;73.40
25154;DHT22;47555;51.038;6.280;2023-02-28T00:21:52;0.30;73.30
25154;DHT22;47555;51.038;6.280;2023-02-28T00:24:18;0.30;73.30
25154;DHT22;47555;51.038;6.280;2023-02-28T00:26:43;0.20;73.20
25154;DHT22;47555;51.038;6.280;2023-02-28T00:29:09;0.20;72.80
25154;DHT22;47555;51.038;6.280;2023-02-28T00:31:38;0.20;72.40
25154;DHT22;47555;51.038;6.280;2023-02-28T00:34:03;0.20;72.50
25154;DHT22;47555;51.038;6.280;2023-02-28T00:36:29;0.40;72.20
25154;DHT22;47555;51.038;6.280;2023-02-28T00:38:54;0.30;71.60
25154;DHT22;47555;51.038;6.280;2023-02-28T00:41:20;0.30;71.20
25154;DHT22;47555;51.038;6.280;2023-02-28T00:43:46;0.30;71.10
25154;DHT22;47555;51.038;6.280;2023-02-28T00:46:11;0.20;71.10
25154;DHT22;47555;51.038;6.280;2023-02-28T00:48:38;0.30;71.10
25154;DHT22;47555;51.038;6.280;2023-02-28T00:51:04;0.20;71.10
25154;DHT22;47555;51.038;6.280;2023-02-28T00:53:30;0.20;70.90
25154;DHT22;47555;51.038;6.280;2023-02-28T00:55:55;0.20;70.90
25154;DHT22;47555;51.038;6.280;2023-02-28T00:58:21;0.20;71.10
25154;DHT22;47555;51.038;6.280;2023-02-28T01:00:47;0.20;71.10
25154;DHT22;47555;51.038;6.280;2023-02-28T01:03:16;0.10;71.70
25154;DHT22;47555;51.038;6.280;2023-02-28T01:05:42;0.20;71.80
25154;DHT22;47555;51.038;6.280;2023-02-28T01:08:07;0.20;71.60
25154;DHT22;47555;51.038;6.280;2023-02-28T01:10:33;0.10;72.10
25154;DHT22;47555;51.038;6.280;2023-02-28T01:12:59;0.10;72.10
25154;DHT22;47555;51.038;6.280;2023-02-28T01:15:24;-0.10;72.30
25154;DHT22;47555;51.038;6.280;2023-02-28T01:17:50;0.10;72.70
25154;DHT22;47555;51.038;6.280;2023-02-28T01:20:16;0.10;72.60
25154;DHT22;47555;51.038;6.280;2023-02-28T01:22:41;0.10;72.80
25154;DHT22;47555;51.038;6.280;2023-02-28T01:25:07;0.10;72.80
25154;DHT22;47555;51.038;6.280;2023-02-28T01:27:33;0.10;73.00
25154;DHT22;47555;51.038;6.280;2023-02-28T01:29:59;0.00;73.20
25154;DHT22;47555;51.038;6.280;2023-02-28T01:32:24;0.00;73.60
25154;DHT22;47555;51.038;6.280;2023-02-28T01:34:50;0.00;73.70
25154;DHT22;47555;51.038;6.280;2023-02-28T01:37:15;-0.10;74.10
25154;DHT22;47555;51.038;6.280;2023-02-28T01:39:41;-0.10;74.50
25154;DHT22;47555;51.038;6.280;2023-02-28T01:42:09;-0.10;74.70
25154;DHT22;47555;51.038;6.280;2023-02-28T01:47:40;-0.10;74.80
25154;DHT22;47555;51.038;6.280;2023-02-28T01:50:13;-0.10;74.60
25154;DHT22;47555;51.038;6.280;2023-02-28T01:52:40;-0.10;75.10
25154;DHT22;47555;51.038;6.280;2023-02-28T01:55:07;-0.20;74.80
25154;DHT22;47555;51.038;6.280;2023-02-28T01:57:36;-0.20;74.90
25154;DHT22;47555;51.038;6.280;2023-02-28T02:00:11;-0.10;75.00
25154;DHT22;47555;51.038;6.280;2023-02-28T02:02:39;-0.10;74.90
25154;DHT22;47555;51.038;6.280;2023-02-28T02:05:17;-0.10;74.90
25154;DHT22;47555;51.038;6.280;2023-02-28T02:07:45;-0.20;74.90
25154;DHT22;47555;51.038;6.280;2023-02-28T02:10:13;-0.20;74.70
25154;DHT22;47555;51.038;6.280;2023-02-28T02:15:34;-0.10;74.70
25154;DHT22;47555;51.038;6.280;2023-02-28T02:18:20;-0.20;74.80
25154;DHT22;47555;51.038;6.280;2023-02-28T02:23:54;-0.20;75.20
25154;DHT22;47555;51.038;6.280;2023-02-28T02:34:56;-0.10;75.50
25154;DHT22;47555;51.038;6.280;2023-02-28T02:37:38;-0.10;75.90
25154;DHT22;47555;51.038;6.280;2023-02-28T02:40:20;-0.10;76.10
25154;DHT22;47555;51.038;6.280;2023-02-28T02:43:01;-0.10;77.10
25154;DHT22;47555;51.038;6.280;2023-02-28T02:45:42;-0.10;76.50
25154;DHT22;47555;51.038;6.280;2023-02-28T02:48:12;-0.10;76.30
25154;DHT22;47555;51.038;6.280;2023-02-28T02:50:45;-0.10;76.50
25154;DHT22;47555;51.038;6.280;2023-02-28T02:53:15;-0.20;76.60
25154;DHT22;47555;51.038;6.280;2023-02-28T02:55:45;-0.20;76.70
25154;DHT22;47555;51.038;6.280;2023-02-28T02:58:15;-0.20;77.20
25154;DHT22;47555;51.038;6.280;2023-02-28T03:00:55;-0.20;77.70
25154;DHT22;47555;51.038;6.280;2023-02-28T03:03:21;-0.20;78.20
25154;DHT22;47555;51.038;6.280;2023-02-28T03:05:58;-0.30;79.10
25154;DHT22;47555;51.038;6.280;2023-02-28T03:08:25;-0.20;79.60
25154;DHT22;47555;51.038;6.280;2023-02-28T03:10:56;-0.20;79.60
25154;DHT22;47555;51.038;6.280;2023-02-28T03:19:06;-0.30;80.80
25154;DHT22;47555;51.038;6.280;2023-02-28T03:26:43;-0.50;81.70
25154;DHT22;47555;51.038;6.280;2023-02-28T03:29:28;-0.50;82.30
25154;DHT22;47555;51.038;6.280;2023-02-28T03:32:08;-0.60;82.60
25154;DHT22;47555;51.038;6.280;2023-02-28T03:34:45;-0.60;82.70
25154;DHT22;47555;51.038;6.280;2023-02-28T03:37:16;-0.50;83.10
25154;DHT22;47555;51.038;6.280;2023-02-28T03:39:55;-0.60;83.30
25154;DHT22;47555;51.038;6.280;2023-02-28T03:42:24;-0.70;83.00
25154;DHT22;47555;51.038;6.280;2023-02-28T03:44:58;-0.80;83.10
25154;DHT22;47555;51.038;6.280;2023-02-28T03:47:33;-0.80;83.10
25154;DHT22;47555;51.038;6.280;2023-02-28T03:50:22;-0.90;83.30
25154;DHT22;47555;51.038;6.280;2023-02-28T03:55:52;-1.00;83.60
25154;DHT22;47555;51.038;6.280;2023-02-28T04:01:23;-1.10;83.80
25154;DHT22;47555;51.038;6.280;2023-02-28T04:03:50;-1.10;84.00
25154;DHT22;47555;51.038;6.280;2023-02-28T04:06:18;-1.20;84.20
25154;DHT22;47555;51.038;6.280;2023-02-28T04:08:45;-1.20;84.40
25154;DHT22;47555;51.038;6.280;2023-02-28T04:11:31;-1.20;84.90
25154;DHT22;47555;51.038;6.280;2023-02-28T04:13:58;-1.20;85.20
25154;DHT22;47555;51.038;6.280;2023-02-28T04:16:23;-1.20;85.90
25154;DHT22;47555;51.038;6.280;2023-02-28T04:18:49;-1.30;85.20
25154;DHT22;47555;51.038;6.280;2023-02-28T04:21:15;-1.30;85.50
25154;DHT22;47555;51.038;6.280;2023-02-28T04:23:40;-1.30;86.20
25154;DHT22;47555;51.038;6.280;2023-02-28T04:26:06;-1.20;86.90
25154;DHT22;47555;51.038;6.280;2023-02-28T04:28:32;-1.10;87.40
25154;DHT22;47555;51.038;6.280;2023-02-28T04:31:01;-1.20;87.20
25154;DHT22;47555;51.038;6.280;2023-02-28T04:33:31;-1.10;87.30
25154;DHT22;47555;51.038;6.280;2023-02-28T04:36:06;-1.10;87.30
25154;DHT22;47555;51.038;6.280;2023-02-28T04:38:36;-1.10;87.40
25154;DHT22;47555;51.038;6.280;2023-02-28T04:41:03;-1.00;87.30
25154;DHT22;47555;51.038;6.280;2023-02-28T04:43:29;-1.00;87.10
25154;DHT22;47555;51.038;6.280;2023-02-28T04:45:56;-1.00;86.90
25154;DHT22;47555;51.038;6.280;2023-02-28T04:48:24;-1.00;87.20
25154;DHT22;47555;51.038;6.280;2023-02-28T04:50:50;-1.00;87.40
25154;DHT22;47555;51.038;6.280;2023-02-28T04:53:15;-1.00;87.40
25154;DHT22;47555;51.038;6.280;2023-02-28T04:55:41;-0.90;87.10
25154;DHT22;47555;51.038;6.280;2023-02-28T04:58:06;-0.80;86.80
25154;DHT22;47555;51.038;6.280;2023-02-28T05:00:32;-0.80;86.30
25154;DHT22;47555;51.038;6.280;2023-02-28T05:02:57;-0.80;86.10
25154;DHT22;47555;51.038;6.280;2023-02-28T05:05:23;-0.80;85.70
25154;DHT22;47555;51.038;6.280;2023-02-28T05:07:51;-0.80;85.40
25154;DHT22;47555;51.038;6.280;2023-02-28T05:10:19;-0.90;85.40
25154;DHT22;47555;51.038;6.280;2023-02-28T05:12:44;-0.90;85.20
25154;DHT22;47555;51.038;6.280;2023-02-28T05:15:14;-0.90;85.10
25154;DHT22;47555;51.038;6.280;2023-02-28T05:17:40;-0.90;85.20
25154;DHT22;47555;51.038;6.280;2023-02-28T05:20:06;-1.00;84.90
25154;DHT22;47555;51.038;6.280;2023-02-28T05:22:32;-1.00;84.90
25154;DHT22;47555;51.038;6.280;2023-02-28T05:24:58;-1.00;85.00
25154;DHT22;47555;51.038;6.280;2023-02-28T05:27:23;-1.10;84.90
25154;DHT22;47555;51.038;6.280;2023-02-28T05:29:49;-1.10;84.70
25154;DHT22;47555;51.038;6.280;2023-02-28T05:32:16;-1.10;84.40
25154;DHT22;47555;51.038;6.280;2023-02-28T05:34:42;-1.10;84.30
25154;DHT22;47555;51.038;6.280;2023-02-28T05:37:14;-1.10;84.90
25154;DHT22;47555;51.038;6.280;2023-02-28T05:39:41;-1.00;84.70
25154;DHT22;47555;51.038;6.280;2023-02-28T05:42:07;-1.20;84.30
25154;DHT22;47555;51.038;6.280;2023-02-28T05:44:33;-1.20;84.60
25154;DHT22;47555;51.038;6.280;2023-02-28T05:46:59;-1.30;84.60
25154;DHT22;47555;51.038;6.280;2023-02-28T05:49:24;-1.30;84.30
25154;DHT22;47555;51.038;6.280;2023-02-28T05:51:50;-1.30;84.10
25154;DHT22;47555;51.038;6.280;2023-02-28T05:54:16;-1.30;85.10
25154;DHT22;47555;51.038;6.280;2023-02-28T05:56:41;-1.30;83.90
25154;DHT22;47555;51.038;6.280;2023-02-28T05:59:09;-1.30;83.40
25154;DHT22;47555;51.038;6.280;2023-02-28T06:01:40;-1.30;83.20
25154;DHT22;47555;51.038;6.280;2023-02-28T06:04:09;-1.30;82.90
25154;DHT22;47555;51.038;6.280;2023-02-28T06:06:35;-1.20;83.00
25154;DHT22;47555;51.038;6.280;2023-02-28T06:09:05;-1.20;82.60
25154;DHT22;47555;51.038;6.280;2023-02-28T06:11:30;-1.30;82.40
25154;DHT22;47555;51.038;6.280;2023-02-28T06:13:57;-1.30;82.20
25154;DHT22;47555;51.038;6.280;2023-02-28T06:16:25;-1.20;82.70
25154;DHT22;47555;51.038;6.280;2023-02-28T06:18:50;-1.30;82.00
25154;DHT22;47555;51.038;6.280;2023-02-28T06:21:18;-1.30;82.20
25154;DHT22;47555;51.038;6.280;2023-02-28T06:23:43;-1.30;81.80
25154;DHT22;47555;51.038;6.280;2023-02-28T06:26:09;-1.30;81.60
25154;DHT22;47555;51.038;6.280;2023-02-28T06:28:35;-1.30;81.60
25154;DHT22;47555;51.038;6.280;2023-02-28T06:31:09;-1.30;81.50
25154;DHT22;47555;51.038;6.280;2023-02-28T06:33:36;-1.30;81.60
25154;DHT22;47555;51.038;6.280;2023-02-28T06:36:02;-1.20;81.40
25154;DHT22;47555;51.038;6.280;2023-02-28T06:38:27;-1.30;81.60
25154;DHT22;47555;51.038;6.280;2023-02-28T06:40:55;-1.20;81.60
25154;DHT22;47555;51.038;6.280;2023-02-28T06:43:21;-1.20;81.60
25154;DHT22;47555;51.038;6.280;2023-02-28T06:45:47;-1.20;81.30
25154;DHT22;47555;51.038;6.280;2023-02-28T06:48:13;-1.20;81.40
25154;DHT22;47555;51.038;6.280;2023-02-28T06:50:38;-1.20;80.90
25154;DHT22;47555;51.038;6.280;2023-02-28T06:53:04;-1.20;81.30
25154;DHT22;47555;51.038;6.280;2023-02-28T06:55:29;-1.10;81.00
25154;DHT22;47555;51.038;6.280;2023-02-28T06:57:55;-1.10;80.80
25154;DHT22;47555;51.038;6.280;2023-02-28T07:00:21;-1.10;81.00
25154;DHT22;47555;51.038;6.280;2023-02-28T07:02:47;-1.10;81.00
25154;DHT22;47555;51.038;6.280;2023-02-28T07:05:13;-1.10;80.50
25154;DHT22;47555;51.038;6.280;2023-02-28T07:07:39;-1.00;80.10
25154;DHT22;47555;51.038;6.280;2023-02-28T07:10:12;-1.00;80.10
25154;DHT22;47555;51.038;6.280;2023-02-28T07:12:38;-0.90;80.00
25154;DHT22;47555;51.038;6.280;2023-02-28T07:15:05;-0.90;79.80
25154;DHT22;47555;51.038;6.280;2023-02-28T07:17:31;-0.70;79.30
25154;DHT22;47555;51.038;6.280;2023-02-28T07:19:56;-0.60;78.00
25154;DHT22;47555;51.038;6.280;2023-02-28T07:22:22;-0.50;77.10
25154;DHT22;47555;51.038;6.280;2023-02-28T07:24:48;-0.40;76.20
25154;DHT22;47555;51.038;6.280;2023-02-28T07:27:13;-0.30;75.10
25154;DHT22;47555;51.038;6.280;2023-02-28T07:29:52;-0.10;74.50
25154;DHT22;47555;51.038;6.280;2023-02-28T07:32:19;0.00;72.60
25154;DHT22;47555;51.038;6.280;2023-02-28T07:34:44;0.10;71.70
25154;DHT22;47555;51.038;6.280;2023-02-28T07:37:10;0.20;70.60
25154;DHT22;47555;51.038;6.280;2023-02-28T07:39:36;0.50;70.70
25154;DHT22;47555;51.038;6.280;2023-02-28T07:42:05;0.50;68.80
25154;DHT22;47555;51.038;6.280;2023-02-28T07:44:31;0.60;67.40
25154;DHT22;47555;51.038;6.280;2023-02-28T07:46:57;0.80;65.80
25154;DHT22;47555;51.038;6.280;2023-02-28T07:49:23;0.90;65.10
25154;DHT22;47555;51.038;6.280;2023-02-28T07:51:48;1.10;63.70
25154;DHT22;47555;51.038;6.280;2023-02-28T07:54:14;1.20;61.50
25154;DHT22;47555;51.038;6.280;2023-02-28T07:56:40;1.30;60.20
25154;DHT22;47555;51.038;6.280;2023-02-28T07:59:05;1.40;60.10
25154;DHT22;47555;51.038;6.280;2023-02-28T08:01:31;1.50;59.30
25154;DHT22;47555;51.038;6.280;2023-02-28T08:03:56;1.80;57.80
25154;DHT22;47555;51.038;6.280;2023-02-28T08:06:25;1.70;58.40
25154;DHT22;47555;51.038;6.280;2023-02-28T08:08:52;1.90;57.40
25154;DHT22;47555;51.038;6.280;2023-02-28T08:11:18;2.20;56.00
25154;DHT22;47555;51.038;6.280;2023-02-28T08:13:45;2.20;56.70
25154;DHT22;47555;51.038;6.280;2023-02-28T08:16:11;2.40;54.60
25154;DHT22;47555;51.038;6.280;2023-02-28T08:18:40;2.50;54.00
25154;DHT22;47555;51.038;6.280;2023-02-28T08:21:07;2.70;49.30
25154;DHT22;47555;51.038;6.280;2023-02-28T08:23:33;2.80;45.00
25154;DHT22;47555;51.038;6.280;2023-02-28T08:25:58;2.80;42.70
25154;DHT22;47555;51.038;6.280;2023-02-28T08:28:24;2.80;43.60
25154;DHT22;47555;51.038;6.280;2023-02-28T08:30:50;2.90;42.20
25154;DHT22;47555;51.038;6.280;2023-02-28T08:33:15;2.80;41.60
25154;DHT22;47555;51.038;6.280;2023-02-28T08:35:41;2.90;39.80
25154;DHT22;47555;51.038;6.280;2023-02-28T08:38:06;2.90;39.50
25154;DHT22;47555;51.038;6.280;2023-02-28T08:40:32;2.90;39.50
25154;DHT22;47555;51.038;6.280;2023-02-28T08:42:57;3.00;39.60
25154;DHT22;47555;51.038;6.280;2023-02-28T08:45:25;3.10;39.40
25154;DHT22;47555;51.038;6.280;2023-02-28T08:47:50;3.30;38.80
25154;DHT22;47555;51.038;6.280;2023-02-28T08:50:18;3.30;38.20
25154;DHT22;47555;51.038;6.280;2023-02-28T08:52:43;3.40;39.10
25154;DHT22;47555;51.038;6.280;2023-02-28T08:55:09;3.60;38.70
25154;DHT22;47555;51.038;6.280;2023-02-28T08:57:35;3.80;38.00
25154;DHT22;47555;51.038;6.280;2023-02-28T09:00:01;4.00;38.60
25154;DHT22;47555;51.038;6.280;2023-02-28T09:02:32;4.10;36.40
25154;DHT22;47555;51.038;6.280;2023-02-28T09:04:58;4.20;35.80
25154;DHT22;47555;51.038;6.280;2023-02-28T09:07:24;4.20;34.50
25154;DHT22;47555;51.038;6.280;2023-02-28T09:09:50;4.20;33.60
25154;DHT22;47555;51.038;6.280;2023-02-28T09:12:23;4.20;33.50
25154;DHT22;47555;51.038;6.280;2023-02-28T09:14:49;4.30;33.80
25154;DHT22;47555;51.038;6.280;2023-02-28T09:17:14;4.40;33.10
25154;DHT22;47555;51.038;6.280;2023-02-28T09:19:40;4.50;31.80
25154;DHT22;47555;51.038;6.280;2023-02-28T09:22:06;4.70;30.00
25154;DHT22;47555;51.038;6.280;2023-02-28T09:24:31;4.70;27.80
25154;DHT22;47555;51.038;6.280;2023-02-28T09:26:57;4.70;26.40
25154;DHT22;47555;51.038;6.280;2023-02-28T09:29:22;4.70;26.30
25154;DHT22;47555;51.038;6.280;2023-02-28T09:31:48;4.60;25.70
25154;DHT22;47555;51.038;6.280;2023-02-28T09:34:13;4.70;26.20
25154;DHT22;47555;51.038;6.280;2023-02-28T09:36:39;4.70;26.40
25154;DHT22;47555;51.038;6.280;2023-02-28T09:39:05;4.80;25.70
25154;DHT22;47555;51.038;6.280;2023-02-28T09:41:41;4.80;24.20
25154;DHT22;47555;51.038;6.280;2023-02-28T09:44:20;4.80;23.00
25154;DHT22;47555;51.038;6.280;2023-02-28T09:46:51;4.60;24.20
25154;DHT22;47555;51.038;6.280;2023-02-28T09:49:23;4.80;24.40
25154;DHT22;47555;51.038;6.280;2023-02-28T09:51:56;4.80;23.50
25154;DHT22;47555;51.038;6.280;2023-02-28T09:54:24;4.90;23.30
25154;DHT22;47555;51.038;6.280;2023-02-28T09:57:08;5.10;23.70
25154;DHT22;47555;51.038;6.280;2023-02-28T10:02:36;5.10;23.30
25154;DHT22;47555;51.038;6.280;2023-02-28T10:05:18;5.30;23.70
25154;DHT22;47555;51.038;6.280;2023-02-28T10:10:32;5.60;21.20
25154;DHT22;47555;51.038;6.280;2023-02-28T10:13:02;5.50;20.00
25154;DHT22;47555;51.038;6.280;2023-02-28T10:15:31;5.50;21.50
25154;DHT22;47555;51.038;6.280;2023-02-28T10:18:01;5.50;21.00
25154;DHT22;47555;51.038;6.280;2023-02-28T10:20:32;5.60;20.40
25154;DHT22;47555;51.038;6.280;2023-02-28T10:25:40;5.60;20.50
25154;DHT22;47555;51.038;6.280;2023-02-28T10:28:14;5.60;20.50
25154;DHT22;47555;51.038;6.280;2023-02-28T10:30:43;5.70;20.00
25154;DHT22;47555;51.038;6.280;2023-02-28T10:33:24;5.70;19.70
25154;DHT22;47555;51.038;6.280;2023-02-28T10:35:51;5.60;20.10
25154;DHT22;47555;51.038;6.280;2023-02-28T10:38:35;5.50;20.40
25154;DHT22;47555;51.038;6.280;2023-02-28T10:43:42;5.80;20.90
25154;DHT22;47555;51.038;6.280;2023-02-28T10:48:44;5.90;19.20
25154;DHT22;47555;51.038;6.280;2023-02-28T10:51:15;5.70;19.60
25154;DHT22;47555;51.038;6.280;2023-02-28T10:53:52;5.80;20.90
25154;DHT22;47555;51.038;6.280;2023-02-28T10:56:20;5.60;19.70
25154;DHT22;47555;51.038;6.280;2023-02-28T11:03:56;5.90;20.20
25154;DHT22;47555;51.038;6.280;2023-02-28T11:06:31;5.80;21.00
25154;DHT22;47555;51.038;6.280;2023-02-28T11:09:16;5.80;20.40
25154;DHT22;47555;51.038;6.280;2023-02-28T11:11:45;5.80;20.30
25154;DHT22;47555;51.038;6.280;2023-02-28T11:14:21;5.80;20.40
25154;DHT22;47555;51.038;6.280;2023-02-28T11:16:48;5.90;20.40
25154;DHT22;47555;51.038;6.280;2023-02-28T11:19:28;5.90;20.90
25154;DHT22;47555;51.038;6.280;2023-02-28T11:21:59;6.00;21.10
25154;DHT22;47555;51.038;6.280;2023-02-28T11:26:57;6.10;21.00
25154;DHT22;47555;51.038;6.280;2023-02-28T11:29:28;6.30;21.30
25154;DHT22;47555;51.038;6.280;2023-02-28T11:32:34;6.40;19.90
25154;DHT22;47555;51.038;6.280;2023-02-28T11:35:36;6.50;19.90
25154;DHT22;47555;51.038;6.280;2023-02-28T11:38:02;6.30;18.70
25154;DHT22;47555;51.038;6.280;2023-02-28T11:40:43;6.00;20.00
25154;DHT22;47555;51.038;6.280;2023-02-28T11:43:39;5.90;20.40
25154;DHT22;47555;51.038;6.280;2023-02-28T11:49:23;6.20;20.70
25154;DHT22;47555;51.038;6.280;2023-02-28T11:52:21;6.30;20.10
25154;DHT22;47555;51.038;6.280;2023-02-28T12:00:44;5.70;20.70
25154;DHT22;47555;51.038;6.280;2023-02-28T12:06:05;5.40;22.10
25154;DHT22;47555;51.038;6.280;2023-02-28T12:14:28;5.30;22.40
25154;DHT22;47555;51.038;6.280;2023-02-28T12:27:34;5.10;22.90
25154;DHT22;47555;51.038;6.280;2023-02-28T12:32:44;5.40;22.90
25154;DHT22;47555;51.038;6.280;2023-02-28T12:40:21;6.20;21.40
25154;DHT22;47555;51.038;6.280;2023-02-28T12:42:51;6.40;21.30
25154;DHT22;47555;51.038;6.280;2023-02-28T12:45:27;6.30;21.40
25154;DHT22;47555;51.038;6.280;2023-02-28T12:48:01;6.30;22.10
25154;DHT22;47555;51.038;6.280;2023-02-28T12:50:28;6.30;21.80
25154;DHT22;47555;51.038;6.280;2023-02-28T12:58:38;6.50;20.80
25154;DHT22;47555;51.038;6.280;2023-02-28T13:06:52;6.70;20.70
25154;DHT22;47555;51.038;6.280;2023-02-28T13:09:23;6.80;20.30
25154;DHT22;47555;51.038;6.280;2023-02-28T13:11:50;6.90;22.20
25154;DHT22;47555;51.038;6.280;2023-02-28T13:14:30;7.00;20.60
25154;DHT22;47555;51.038;6.280;2023-02-28T13:19:35;6.70;19.70
25154;DHT22;47555;51.038;6.280;2023-02-28T13:22:03;6.60;20.30
25154;DHT22;47555;51.038;6.280;2023-02-28T13:24:45;6.50;20.00
25154;DHT22;47555;51.038;6.280;2023-02-28T13:27:37;6.50;20.80
25154;DHT22;47555;51.038;6.280;2023-02-28T13:35:46;6.10;21.70
25154;DHT22;47555;51.038;6.280;2023-02-28T13:38:33;6.30;22.30
25154;DHT22;47555;51.038;6.280;2023-02-28T13:44:09;6.40;21.50
25154;DHT22;47555;51.038;6.280;2023-02-28T13:49:27;6.50;21.50
25154;DHT22;47555;51.038;6.280;2023-02-28T14:00:23;6.50;22.50
25154;DHT22;47555;51.038;6.280;2023-02-28T14:03:22;6.60;21.50
25154;DHT22;47555;51.038;6.280;2023-02-28T14:06:24;6.70;21.60
25154;DHT22;47555;51.038;6.280;2023-02-28T14:11:44;6.60;21.60
25154;DHT22;47555;51.038;6.280;2023-02-28T14:17:12;6.60;21.80
25154;DHT22;47555;51.038;6.280;2023-02-28T14:19:39;6.60;22.00
25154;DHT22;47555;51.038;6.280;2023-02-28T14:27:26;6.60;23.70
25154;DHT22;47555;51.038;6.280;2023-02-28T14:30:01;6.60;22.40
25154;DHT22;47555;51.038;6.280;2023-02-28T14:36:00;6.60;21.90
25154;DHT22;47555;51.038;6.280;2023-02-28T14:38:31;6.50;21.60
25154;DHT22;47555;51.038;6.280;2023-02-28T14:41:01;6.40;22.00
25154;DHT22;47555;51.038;6.280;2023-02-28T14:43:28;6.40;23.00
25154;DHT22;47555;51.038;6.280;2023-02-28T14:46:02;6.50;22.90
25154;DHT22;47555;51.038;6.280;2023-02-28T14:48:29;6.60;22.40
25154;DHT22;47555;51.038;6.280;2023-02-28T14:50:57;6.60;21.50
25154;DHT22;47555;51.038;6.280;2023-02-28T14:53:27;6.60;21.60
25154;DHT22;47555;51.038;6.280;2023-02-28T14:55:53;6.70;22.10
25154;DHT22;47555;51.038;6.280;2023-02-28T14:58:26;6.60;22.90
25154;DHT22;47555;51.038;6.280;2023-02-28T15:00:54;6.60;23.40
25154;DHT22;47555;51.038;6.280;2023-02-28T15:03:21;6.60;23.60
25154;DHT22;47555;51.038;6.280;2023-02-28T15:05:55;6.70;23.00
25154;DHT22;47555;51.038;6.280;2023-02-28T15:08:20;6.70;22.40
25154;DHT22;47555;51.038;6.280;2023-02-28T15:10:57;6.60;22.90
25154;DHT22;47555;51.038;6.280;2023-02-28T15:13:31;6.50;23.10
25154;DHT22;47555;51.038;6.280;2023-02-28T15:16:04;6.60;23.40
25154;DHT22;47555;51.038;6.280;2023-02-28T15:21:17;6.50;24.30
25154;DHT22;47555;51.038;6.280;2023-02-28T15:23:46;6.60;24.60
25154;DHT22;47555;51.038;6.280;2023-02-28T15:26:20;6.70;23.30
25154;DHT22;47555;51.038;6.280;2023-02-28T15:28:50;6.60;23.60
25154;DHT22;47555;51.038;6.280;2023-02-28T15:31:23;6.60;23.60
25154;DHT22;47555;51.038;6.280;2023-02-28T15:33:56;6.40;23.30
25154;DHT22;47555;51.038;6.280;2023-02-28T15:36:24;6.40;24.20
25154;DHT22;47555;51.038;6.280;2023-02-28T15:38:53;6.40;24.30
25154;DHT22;47555;51.038;6.280;2023-02-28T15:41:30;6.40;24.20
25154;DHT22;47555;51.038;6.280;2023-02-28T15:44:27;6.30;24.20
25154;DHT22;47555;51.038;6.280;2023-02-28T15:47:07;6.20;24.00
25154;DHT22;47555;51.038;6.280;2023-02-28T15:49:45;6.20;24.20
25154;DHT22;47555;51.038;6.280;2023-02-28T15:52:16;6.10;24.70
25154;DHT22;47555;51.038;6.280;2023-02-28T15:54:43;6.00;24.50
25154;DHT22;47555;51.038;6.280;2023-02-28T15:57:25;5.90;24.80
25154;DHT22;47555;51.038;6.280;2023-02-28T16:00:00;5.90;25.10
25154;DHT22;47555;51.038;6.280;2023-02-28T16:02:35;5.80;25.70
25154;DHT22;47555;51.038;6.280;2023-02-28T16:07:40;5.80;26.40
25154;DHT22;47555;51.038;6.280;2023-02-28T16:10:09;5.70;26.20
25154;DHT22;47555;51.038;6.280;2023-02-28T16:12:36;5.70;26.20
25154;DHT22;47555;51.038;6.280;2023-02-28T16:15:20;5.60;26.70
25154;DHT22;47555;51.038;6.280;2023-02-28T16:17:46;5.60;27.00
25154;DHT22;47555;51.038;6.280;2023-02-28T16:20:14;5.60;26.90
25154;DHT22;47555;51.038;6.280;2023-02-28T16:22:41;5.60;27.00
25154;DHT22;47555;51.038;6.280;2023-02-28T16:25:15;5.60;27.00
25154;DHT22;47555;51.038;6.280;2023-02-28T16:27:42;5.50;27.10
25154;DHT22;47555;51.038;6.280;2023-02-28T16:30:16;5.40;27.20
25154;DHT22;47555;51.038;6.280;2023-02-28T16:32:43;5.30;27.50
25154;DHT22;47555;51.038;6.280;2023-02-28T16:35:18;5.30;27.60
25154;DHT22;47555;51.038;6.280;2023-02-28T16:37:43;5.30;28.10
25154;DHT22;47555;51.038;6.280;2023-02-28T16:40:21;5.20;28.20
25154;DHT22;47555;51.038;6.280;2023-02-28T16:42:48;5.20;28.40
25154;DHT22;47555;51.038;6.280;2023-02-28T16:45:25;5.20;28.60
25154;DHT22;47555;51.038;6.280;2023-02-28T16:47:52;5.10;28.80
25154;DHT22;47555;51.038;6.280;2023-02-28T16:52:44;5.00;29.70
25154;DHT22;47555;51.038;6.280;2023-02-28T16:55:10;4.90;30.00
25154;DHT22;47555;51.038;6.280;2023-02-28T16:57:36;4.90;30.40
25154;DHT22;47555;51.038;6.280;2023-02-28T17:00:03;4.80;30.50
25154;DHT22;47555;51.038;6.280;2023-02-28T17:02:29;4.70;30.90
25154;DHT22;47555;51.038;6.280;2023-02-28T17:04:54;4.70;31.10
25154;DHT22;47555;51.038;6.280;2023-02-28T17:07:20;4.60;30.90
25154;DHT22;47555;51.038;6.280;2023-02-28T17:09:45;4.60;31.20
25154;DHT22;47555;51.038;6.280;2023-02-28T17:12:11;4.50;31.50
25154;DHT22;47555;51.038;6.280;2023-02-28T17:14:37;4.50;31.70
25154;DHT22;47555;51.038;6.280;2023-02-28T17:17:04;4.40;32.10
25154;DHT22;47555;51.038;6.280;2023-02-28T17:19:30;4.30;32.50
25154;DHT22;47555;51.038;6.280;2023-02-28T17:21:56;4.30;32.50
25154;DHT22;47555;51.038;6.280;2023-02-28T17:24:21;4.20;32.90
25154;DHT22;47555;51.038;6.280;2023-02-28T17:26:47;4.20;33.20
25154;DHT22;47555;51.038;6.280;2023-02-28T17:29:20;4.10;33.60
25154;DHT22;47555;51.038;6.280;2023-02-28T17:31:46;4.00;33.80
25154;DHT22;47555;51.038;6.280;2023-02-28T17:34:13;4.00;34.10
25154;DHT22;47555;51.038;6.280;2023-02-28T17:36:44;3.90;34.50
25154;DHT22;47555;51.038;6.280;2023-02-28T17:39:11;3.90;34.60
25154;DHT22;47555;51.038;6.280;2023-02-28T17:41:39;3.90;35.10
25154;DHT22;47555;51.038;6.280;2023-02-28T17:44:05;3.80;35.50
25154;DHT22;47555;51.038;6.280;2023-02-28T17:46:31;3.80;36.00
25154;DHT22;47555;51.038;6.280;2023-02-28T17:48:57;3.70;36.20
25154;DHT22;47555;51.038;6.280;2023-02-28T17:51:24;3.70;36.60
25154;DHT22;47555;51.038;6.280;2023-02-28T17:53:49;3.60;36.60
25154;DHT22;47555;51.038;6.280;2023-02-28T17:56:25;3.60;36.90
25154;DHT22;47555;51.038;6.280;2023-02-28T17:58:53;3.50;37.00
25154;DHT22;47555;51.038;6.280;2023-02-28T18:01:20;3.50;37.30
25154;DHT22;47555;51.038;6.280;2023-02-28T18:03:46;3.50;37.20
25154;DHT22;47555;51.038;6.280;2023-02-28T18:06:22;3.50;37.70
25154;DHT22;47555;51.038;6.280;2023-02-28T18:08:49;3.40;37.70
25154;DHT22;47555;51.038;6.280;2023-02-28T18:11:17;3.40;37.80
25154;DHT22;47555;51.038;6.280;2023-02-28T18:13:53;3.30;38.00
25154;DHT22;47555;51.038;6.280;2023-02-28T18:16:20;3.30;38.00
25154;DHT22;47555;51.038;6.280;2023-02-28T18:18:47;3.20;38.30
25154;DHT22;47555;51.038;6.280;2023-02-28T18:21:14;3.20;38.50
25154;DHT22;47555;51.038;6.280;2023-02-28T18:23:40;3.10;38.80